createdAt,value
2023-02-11T00:00:43.519Z,45.42
2023-02-11T00:03:11.769Z,47.00
2023-02-11T00:05:40.107Z,57.72
2023-02-11T00:08:08.383Z,50.55
2023-02-11T00:10:36.655Z,53.30
2023-02-11T00:13:04.934Z,46.45
2023-02-11T00:15:33.222Z,53.03
2023-02-11T00:18:02.821Z,56.20
2023-02-11T00:20:31.068Z,52.50
2023-02-11T00:22:59.464Z,54.67
2023-02-11T00:25:27.714Z,56.75
2023-02-11T00:27:55.985Z,56.33
2023-02-11T00:30:24.505Z,57.40
2023-02-11T00:32:52.847Z,51.08
2023-02-11T00:35:22.451Z,49.92
2023-02-11T00:37:50.705Z,54.20
2023-02-11T00:40:19.034Z,51.38
2023-02-11T00:42:47.422Z,51.78
2023-02-11T00:45:15.663Z,56.75
2023-02-11T00:47:44.085Z,55.95
2023-02-11T00:50:12.320Z,53.83
2023-02-11T00:52:41.952Z,55.03
2023-02-11T00:55:10.517Z,60.97
2023-02-11T00:57:38.915Z,54.85
2023-02-11T01:00:08.983Z,56.08
2023-02-11T01:02:37.243Z,59.90
2023-02-11T01:05:06.274Z,57.80
2023-02-11T01:07:34.596Z,58.83
2023-02-11T01:10:04.402Z,62.78
2023-02-11T01:12:35.942Z,55.63
2023-02-11T01:15:06.062Z,55.22
2023-02-11T01:17:34.746Z,48.30
2023-02-11T01:20:04.085Z,54.00
2023-02-11T01:22:32.507Z,54.53
2023-02-11T01:25:00.876Z,48.38
2023-02-11T01:27:30.732Z,55.40
2023-02-11T01:29:59.422Z,45.58
2023-02-11T01:32:27.777Z,46.70
2023-02-11T01:34:56.214Z,52.55
2023-02-11T01:37:24.552Z,49.50
2023-02-11T01:39:52.951Z,47.80
2023-02-11T01:42:22.682Z,44.10
2023-02-11T01:44:53.472Z,47.70
2023-02-11T01:47:22.407Z,41.25
2023-02-11T01:49:53.193Z,52.15
2023-02-11T01:52:25.058Z,54.42
2023-02-11T01:57:59.368Z,50.22
2023-02-11T02:00:34.344Z,47.85
2023-02-11T02:03:06.665Z,49.65
2023-02-11T02:05:38.308Z,48.13
2023-02-11T02:08:11.447Z,48.65
2023-02-11T02:10:42.640Z,47.00
2023-02-11T02:13:10.980Z,46.80
2023-02-11T02:15:42.713Z,46.67
2023-02-11T02:18:20.753Z,42.78
2023-02-11T02:21:23.630Z,47.42
2023-02-11T02:24:04.198Z,47.55
2023-02-11T02:29:41.059Z,47.38
2023-02-11T02:32:29.486Z,47.58
2023-02-11T02:35:03.227Z,48.28
2023-02-11T02:37:34.684Z,46.33
2023-02-11T02:40:06.556Z,47.03
2023-02-11T02:42:35.025Z,45.60
2023-02-11T02:45:03.333Z,46.05
2023-02-11T02:47:33.070Z,46.75
2023-02-11T02:50:01.417Z,47.10
2023-02-11T02:52:36.886Z,44.00
2023-02-11T02:55:15.834Z,48.15
2023-02-11T02:57:59.325Z,45.80
2023-02-11T03:00:33.243Z,42.45
2023-02-11T03:03:17.202Z,48.90
2023-02-11T03:05:51.414Z,41.10
2023-02-11T03:08:25.617Z,41.88
2023-02-11T03:10:54.828Z,42.42
2023-02-11T03:13:26.338Z,43.05
2023-02-11T03:15:56.942Z,43.00
2023-02-11T03:20:56.248Z,42.42
2023-02-11T03:23:28.261Z,46.22
2023-02-11T03:25:59.872Z,35.55
2023-02-11T03:28:31.974Z,45.00
2023-02-11T03:31:11.119Z,40.40
2023-02-11T03:33:44.964Z,45.38
2023-02-11T03:36:17.668Z,38.75
2023-02-11T03:38:49.385Z,39.45
2023-02-11T03:41:19.268Z,41.97
2023-02-11T03:43:50.084Z,40.72
2023-02-11T03:46:21.065Z,39.10
2023-02-11T03:48:52.835Z,35.97
2023-02-11T03:51:22.302Z,37.65
2023-02-11T03:53:51.032Z,38.10
2023-02-11T03:56:22.034Z,37.72
2023-02-11T03:58:50.497Z,37.22
2023-02-11T04:01:18.881Z,42.35
2023-02-11T04:03:47.189Z,38.50
2023-02-11T04:06:16.828Z,43.30
2023-02-11T04:08:45.137Z,37.83
2023-02-11T04:11:13.378Z,37.42
2023-02-11T04:13:41.693Z,40.47
2023-02-11T04:16:10.103Z,40.90
2023-02-11T04:18:38.441Z,39.95
2023-02-11T04:21:07.097Z,37.30
2023-02-11T04:23:36.764Z,38.28
2023-02-11T04:26:05.185Z,39.37
2023-02-11T04:28:33.784Z,37.42
2023-02-11T04:31:02.106Z,36.83
2023-02-11T04:33:30.394Z,37.15
2023-02-11T04:35:58.665Z,35.85
2023-02-11T04:38:27.386Z,35.95
2023-02-11T04:40:57.020Z,41.38
2023-02-11T04:43:25.252Z,36.93
2023-02-11T04:45:53.684Z,36.92
2023-02-11T04:48:22.117Z,35.65
2023-02-11T04:50:50.359Z,37.88
2023-02-11T04:53:18.663Z,37.78
2023-02-11T04:55:50.201Z,37.83
2023-02-11T04:58:20.570Z,38.22
2023-02-11T05:00:49.044Z,38.28
2023-02-11T05:03:17.502Z,34.67
2023-02-11T05:05:45.846Z,38.97
2023-02-11T05:08:14.206Z,40.95
2023-02-11T05:10:47.172Z,32.97
2023-02-11T05:13:15.682Z,35.72
2023-02-11T05:15:45.413Z,35.95
2023-02-11T05:18:14.906Z,33.85
2023-02-11T05:20:43.429Z,31.05
2023-02-11T05:23:12.039Z,35.13
2023-02-11T05:25:40.741Z,32.75
2023-02-11T05:28:09.134Z,31.67
2023-02-11T05:30:37.583Z,38.22
2023-02-11T05:33:07.722Z,33.75
2023-02-11T05:35:36.069Z,32.63
2023-02-11T05:38:04.426Z,33.03
2023-02-11T05:40:32.831Z,31.35
2023-02-11T05:43:01.160Z,33.08
2023-02-11T05:45:29.501Z,30.30
2023-02-11T05:47:58.414Z,32.15
2023-02-11T05:50:28.118Z,34.08
2023-02-11T05:52:56.475Z,31.83
2023-02-11T05:55:25.015Z,27.80
2023-02-11T05:57:53.427Z,31.80
2023-02-11T06:00:21.792Z,28.42
2023-02-11T06:02:50.183Z,30.02
2023-02-11T06:05:18.574Z,27.80
2023-02-11T06:07:48.298Z,25.83
2023-02-11T06:10:16.762Z,27.25
2023-02-11T06:12:45.225Z,28.80
2023-02-11T06:15:13.645Z,28.17
2023-02-11T06:17:41.946Z,27.73
2023-02-11T06:20:11.168Z,23.17
2023-02-11T06:22:39.533Z,25.80
2023-02-11T06:25:11.057Z,26.45
2023-02-11T06:27:39.903Z,26.98
2023-02-11T06:30:09.820Z,20.20
2023-02-11T06:32:46.096Z,24.30
2023-02-11T06:35:15.239Z,21.67
2023-02-11T06:37:43.834Z,25.55
2023-02-11T06:40:14.198Z,23.05
2023-02-11T06:42:42.549Z,24.52
2023-02-11T06:45:13.207Z,26.02
2023-02-11T06:47:42.038Z,23.92
2023-02-11T06:50:13.234Z,23.60
2023-02-11T06:52:41.616Z,22.50
2023-02-11T06:55:11.017Z,26.63
2023-02-11T06:57:40.937Z,22.27
2023-02-11T07:00:10.625Z,21.30
2023-02-11T07:02:38.998Z,23.40
2023-02-11T07:05:07.904Z,21.40
2023-02-11T07:07:36.259Z,22.48
2023-02-11T07:10:05.908Z,23.10
2023-02-11T07:12:34.263Z,23.10
2023-02-11T07:15:04.069Z,25.77
2023-02-11T07:17:32.406Z,21.40
2023-02-11T07:20:00.736Z,20.52
2023-02-11T07:22:29.000Z,20.38
2023-02-11T07:24:57.384Z,19.45
2023-02-11T07:27:25.694Z,18.77
2023-02-11T07:29:54.024Z,20.88
2023-02-11T07:32:23.715Z,23.00
2023-02-11T07:34:52.217Z,35.57
2023-02-11T07:37:20.715Z,43.65
2023-02-11T07:39:49.055Z,65.72
2023-02-11T07:42:17.551Z,109.53
2023-02-11T07:44:47.054Z,50.47
2023-02-11T07:47:16.345Z,25.00
2023-02-11T07:49:46.657Z,19.48
2023-02-11T07:52:14.933Z,17.00
2023-02-11T07:54:43.302Z,15.93
2023-02-11T07:57:11.738Z,18.67
2023-02-11T07:59:40.072Z,15.77
2023-02-11T08:02:08.431Z,18.27
2023-02-11T08:04:36.767Z,18.15
2023-02-11T08:07:06.894Z,18.90
2023-02-11T08:09:35.192Z,19.30
2023-02-11T08:12:03.554Z,17.67
2023-02-11T08:14:32.797Z,17.02
2023-02-11T08:17:01.163Z,18.17
2023-02-11T08:19:29.503Z,21.98
2023-02-11T08:21:58.521Z,16.92
2023-02-11T08:24:28.184Z,17.45
2023-02-11T08:26:56.565Z,15.57
2023-02-11T08:29:25.152Z,16.17
2023-02-11T08:31:53.539Z,15.40
2023-02-11T08:34:22.122Z,15.68
2023-02-11T08:36:50.422Z,17.75
2023-02-11T08:39:21.065Z,16.33
2023-02-11T08:41:52.329Z,16.02
2023-02-11T08:44:21.570Z,15.95
2023-02-11T08:46:50.575Z,14.45
2023-02-11T08:49:19.022Z,13.85
2023-02-11T08:51:47.615Z,19.55
2023-02-11T08:54:16.348Z,15.98
2023-02-11T08:56:44.854Z,16.00
2023-02-11T08:59:17.732Z,18.40
2023-02-11T09:01:47.342Z,18.33
2023-02-11T09:04:15.886Z,18.48
2023-02-11T09:06:44.207Z,14.63
2023-02-11T09:09:14.599Z,16.15
2023-02-11T09:11:43.888Z,19.45
2023-02-11T09:14:18.370Z,19.85
2023-02-11T09:16:46.824Z,20.23
2023-02-11T09:19:15.223Z,22.05
2023-02-11T09:21:43.561Z,22.15
2023-02-11T09:24:12.619Z,18.75
2023-02-11T09:26:43.938Z,17.20
2023-02-11T09:29:15.217Z,17.08
2023-02-11T09:31:43.711Z,18.38
2023-02-11T09:34:12.873Z,16.80
2023-02-11T09:36:41.865Z,18.70
2023-02-11T09:39:14.366Z,17.17
2023-02-11T09:42:17.467Z,16.80
2023-02-11T09:44:48.051Z,17.33
2023-02-11T09:49:54.503Z,18.88
2023-02-11T09:52:27.347Z,18.50
2023-02-11T09:54:57.496Z,20.35
2023-02-11T09:57:29.341Z,20.55
2023-02-11T09:59:59.198Z,20.33
2023-02-11T10:02:32.007Z,19.33
2023-02-11T10:05:23.992Z,23.05
2023-02-11T10:07:58.385Z,21.10
2023-02-11T10:10:40.052Z,20.25
2023-02-11T10:13:42.406Z,20.48
2023-02-11T10:16:26.407Z,19.10
2023-02-11T10:19:14.126Z,21.35
2023-02-11T10:21:53.008Z,18.10
2023-02-11T10:24:21.548Z,22.25
2023-02-11T10:26:50.350Z,23.02
2023-02-11T10:29:35.421Z,21.05
2023-02-11T10:32:12.205Z,20.48
2023-02-11T10:34:42.599Z,23.15
2023-02-11T10:37:13.009Z,22.58
2023-02-11T10:39:41.969Z,23.92
2023-02-11T10:42:12.624Z,19.40
2023-02-11T10:47:15.337Z,17.38
2023-02-11T10:49:45.024Z,20.73
2023-02-11T10:52:20.592Z,24.93
2023-02-11T10:55:00.313Z,22.90
2023-02-11T10:57:31.603Z,19.73
2023-02-11T11:00:01.824Z,22.00
2023-02-11T11:02:34.500Z,24.15
2023-02-11T11:05:05.291Z,16.55
2023-02-11T11:07:34.879Z,26.13
2023-02-11T11:10:05.182Z,23.85
2023-02-11T11:12:36.666Z,22.63
2023-02-11T11:15:18.829Z,22.52
2023-02-11T11:17:48.758Z,22.52
2023-02-11T11:20:22.297Z,20.13
2023-02-11T11:22:52.478Z,23.17
2023-02-11T11:25:26.325Z,24.00
2023-02-11T11:27:56.692Z,19.08
2023-02-11T11:30:27.231Z,22.73
2023-02-11T11:32:57.433Z,23.45
2023-02-11T11:35:27.675Z,23.23
2023-02-11T11:38:01.247Z,24.73
2023-02-11T11:40:31.267Z,20.95
2023-02-11T11:43:08.651Z,21.63
2023-02-11T11:45:37.153Z,24.45
2023-02-11T11:48:11.586Z,23.88
2023-02-11T11:50:43.409Z,25.48
2023-02-11T11:53:16.259Z,24.48
2023-02-11T11:55:46.642Z,24.63
2023-02-11T11:58:17.551Z,23.30
2023-02-11T12:00:54.570Z,27.10
2023-02-11T12:04:04.587Z,23.85
2023-02-11T12:06:41.167Z,26.57
2023-02-11T12:09:17.684Z,24.67
2023-02-11T12:12:01.255Z,26.13
2023-02-11T12:14:36.720Z,25.27
2023-02-11T12:17:08.820Z,24.92
2023-02-11T12:20:04.607Z,27.55
2023-02-11T12:22:40.179Z,25.58
2023-02-11T12:25:23.615Z,25.50
2023-02-11T12:27:59.070Z,25.50
2023-02-11T12:30:47.746Z,24.70
2023-02-11T12:33:26.978Z,23.42
2023-02-11T12:36:01.121Z,23.27
2023-02-11T12:38:40.750Z,24.58
2023-02-11T12:41:40.571Z,19.63
2023-02-11T12:44:09.393Z,24.85
2023-02-11T12:46:42.149Z,16.83
2023-02-11T12:49:28.788Z,21.30
2023-02-11T12:52:09.431Z,26.23
2023-02-11T12:54:42.493Z,21.23
2023-02-11T12:57:18.142Z,20.25
2023-02-11T12:59:56.366Z,27.08
2023-02-11T13:02:31.166Z,22.38
2023-02-11T13:05:05.096Z,18.27
2023-02-11T13:07:38.691Z,21.55
2023-02-11T13:10:17.626Z,22.88
2023-02-11T13:13:04.895Z,20.60
2023-02-11T13:15:33.316Z,20.00
2023-02-11T13:18:06.997Z,20.65
2023-02-11T13:20:41.293Z,20.95
2023-02-11T13:23:18.425Z,15.13
2023-02-11T13:25:51.382Z,20.95
2023-02-11T13:28:27.265Z,23.17
2023-02-11T13:31:02.761Z,17.17
2023-02-11T13:33:36.280Z,17.27
2023-02-11T13:36:23.208Z,20.25
2023-02-11T13:39:02.346Z,19.67
2023-02-11T13:41:33.404Z,16.20
2023-02-11T13:44:04.537Z,24.42
2023-02-11T13:46:59.152Z,18.63
2023-02-11T13:49:32.428Z,18.52
2023-02-11T13:52:02.314Z,24.13
2023-02-11T13:54:34.720Z,20.48
2023-02-11T13:57:32.658Z,17.65
2023-02-11T14:00:02.845Z,18.17
2023-02-11T14:02:51.055Z,18.02
2023-02-11T14:05:48.262Z,20.50
2023-02-11T14:08:42.547Z,19.20
2023-02-11T14:11:43.846Z,19.90
2023-02-11T14:14:25.797Z,18.98
2023-02-11T14:17:31.907Z,17.23
2023-02-11T14:20:00.892Z,12.82
2023-02-11T14:22:31.662Z,20.42
2023-02-11T14:25:01.920Z,14.73
2023-02-11T14:27:38.065Z,19.95
2023-02-11T14:30:16.056Z,17.85
2023-02-11T14:32:54.247Z,19.83
2023-02-11T14:35:27.230Z,22.08
2023-02-11T14:38:00.201Z,22.25
2023-02-11T14:40:32.056Z,20.83
2023-02-11T14:43:14.821Z,17.85
2023-02-11T14:45:45.656Z,19.10
2023-02-11T14:50:46.764Z,18.70
2023-02-11T14:53:17.798Z,15.75
2023-02-11T14:55:48.625Z,17.63
2023-02-11T14:58:21.014Z,14.15
2023-02-11T15:00:55.334Z,15.25
2023-02-11T15:03:42.276Z,15.32
2023-02-11T15:06:18.464Z,9.80
2023-02-11T15:08:49.221Z,14.52
2023-02-11T15:11:19.711Z,16.27
2023-02-11T15:13:50.415Z,14.20
2023-02-11T15:18:51.770Z,16.77
2023-02-11T15:21:24.282Z,11.30
2023-02-11T15:24:01.055Z,13.90
2023-02-11T15:26:30.039Z,18.60
2023-02-11T15:29:00.018Z,14.15
2023-02-11T15:31:29.815Z,15.07
2023-02-11T15:34:08.432Z,17.95
2023-02-11T15:36:36.963Z,15.65
2023-02-11T15:39:29.019Z,16.55
2023-02-11T15:41:57.406Z,15.00
2023-02-11T15:44:31.311Z,15.80
2023-02-11T15:47:00.150Z,15.20
2023-02-11T15:49:28.544Z,15.88
2023-02-11T15:51:58.988Z,16.73
2023-02-11T15:54:29.557Z,16.75
2023-02-11T15:59:31.679Z,14.43
2023-02-11T16:02:07.934Z,15.30
2023-02-11T16:04:37.576Z,14.45
2023-02-11T16:07:06.626Z,16.42
2023-02-11T16:09:35.936Z,16.98
2023-02-11T16:12:07.559Z,18.88
2023-02-11T16:14:39.346Z,15.05
2023-02-11T16:17:09.085Z,18.98
2023-02-11T16:19:43.052Z,20.23
2023-02-11T16:22:13.187Z,22.90
2023-02-11T16:24:41.483Z,18.55
2023-02-11T16:27:21.096Z,16.52
2023-02-11T16:29:51.561Z,18.30
2023-02-11T16:32:20.950Z,19.23
2023-02-11T16:34:49.385Z,16.92
2023-02-11T16:37:18.158Z,17.10
2023-02-11T16:39:46.344Z,18.98
2023-02-11T16:42:14.575Z,19.90
2023-02-11T16:44:42.771Z,17.48
2023-02-11T16:47:18.744Z,17.02
2023-02-11T16:49:47.047Z,15.00
2023-02-11T16:52:16.876Z,17.70
2023-02-11T16:54:45.289Z,16.48
2023-02-11T16:57:15.781Z,19.23
2023-02-11T16:59:44.562Z,18.05
2023-02-11T17:02:17.075Z,16.95
2023-02-11T17:04:45.859Z,20.85
2023-02-11T17:07:14.272Z,18.33
2023-02-11T17:09:42.527Z,19.50
2023-02-11T17:12:10.759Z,16.67
2023-02-11T17:14:39.033Z,17.30
2023-02-11T17:17:08.056Z,17.17
2023-02-11T17:19:38.066Z,17.65
2023-02-11T17:22:06.669Z,19.55
2023-02-11T17:24:35.034Z,17.88
2023-02-11T17:27:03.290Z,19.88
2023-02-11T17:29:31.660Z,24.25
2023-02-11T17:32:00.020Z,21.60
2023-02-11T17:34:29.321Z,19.75
2023-02-11T17:37:00.267Z,18.80
2023-02-11T17:39:28.693Z,21.00
2023-02-11T17:41:56.969Z,19.30
2023-02-11T17:44:25.336Z,18.67
2023-02-11T17:46:53.655Z,21.55
2023-02-11T17:49:21.981Z,23.65
2023-02-11T17:51:50.377Z,23.50
2023-02-11T17:54:20.509Z,20.25
2023-02-11T17:56:50.884Z,21.00
2023-02-11T17:59:19.396Z,21.02
2023-02-11T18:01:47.887Z,23.80
2023-02-11T18:04:18.457Z,21.65
2023-02-11T18:09:14.981Z,23.25
2023-02-11T18:11:44.722Z,20.63
2023-02-11T18:14:13.207Z,20.47
2023-02-11T18:16:43.640Z,20.02
2023-02-11T18:19:12.550Z,23.60
2023-02-11T18:21:41.583Z,21.52
2023-02-11T18:24:10.255Z,20.83
2023-02-11T18:26:38.745Z,19.25
2023-02-11T18:29:08.522Z,18.65
2023-02-11T18:31:37.309Z,21.27
2023-02-11T18:34:07.622Z,21.48
2023-02-11T18:36:36.611Z,20.20
2023-02-11T18:39:05.778Z,21.33
2023-02-11T18:41:34.158Z,22.67
2023-02-11T18:44:03.442Z,20.13
2023-02-11T18:46:33.292Z,21.15
2023-02-11T18:49:01.703Z,20.63
2023-02-11T18:51:32.352Z,21.02
2023-02-11T18:56:29.758Z,19.83
2023-02-11T18:59:01.300Z,21.52
2023-02-11T19:01:31.212Z,21.67
2023-02-11T19:04:02.938Z,20.45
2023-02-11T19:06:33.778Z,23.17
2023-02-11T19:09:07.421Z,23.95
2023-02-11T19:11:54.379Z,20.13
2023-02-11T19:14:25.101Z,21.25
2023-02-11T19:16:54.912Z,21.48
2023-02-11T19:19:29.067Z,25.85
2023-02-11T19:21:57.863Z,19.65
2023-02-11T19:24:26.930Z,20.42
2023-02-11T19:26:57.784Z,21.85
2023-02-11T19:29:26.237Z,26.17
2023-02-11T19:31:54.937Z,22.02
2023-02-11T19:34:24.771Z,23.95
2023-02-11T19:36:54.215Z,20.20
2023-02-11T19:39:24.094Z,24.10
2023-02-11T19:41:52.579Z,22.38
2023-02-11T19:44:20.901Z,25.05
2023-02-11T19:46:50.270Z,21.50
2023-02-11T19:49:23.133Z,26.60
2023-02-11T19:51:53.874Z,24.40
2023-02-11T19:54:22.331Z,24.02
2023-02-11T19:56:50.929Z,22.95
2023-02-11T19:59:19.504Z,21.63
2023-02-11T20:01:49.036Z,23.88
2023-02-11T20:04:17.939Z,23.23
2023-02-11T20:06:48.095Z,25.17
2023-02-11T20:09:17.724Z,23.20
2023-02-11T20:11:46.008Z,25.42
2023-02-11T20:14:15.617Z,23.58
2023-02-11T20:16:49.065Z,23.35
2023-02-11T20:19:20.317Z,24.27
2023-02-11T20:21:50.656Z,25.85
2023-02-11T20:24:21.324Z,25.92
2023-02-11T20:29:18.443Z,22.60
2023-02-11T20:31:47.064Z,23.80
2023-02-11T20:34:17.563Z,23.15
2023-02-11T20:36:51.542Z,24.27
2023-02-11T20:39:22.860Z,28.98
2023-02-11T20:41:51.733Z,30.80
2023-02-11T20:44:21.776Z,29.88
2023-02-11T20:46:50.286Z,31.92
2023-02-11T20:49:20.377Z,31.80
2023-02-11T20:51:49.139Z,28.90
2023-02-11T20:54:19.035Z,28.00
2023-02-11T20:56:50.718Z,27.40
2023-02-11T20:59:19.773Z,26.85
2023-02-11T21:01:49.872Z,24.60
2023-02-11T21:04:20.236Z,26.15
2023-02-11T21:06:49.777Z,25.58
2023-02-11T21:09:20.706Z,22.85
2023-02-11T21:11:51.586Z,22.67
2023-02-11T21:14:20.812Z,28.58
2023-02-11T21:16:49.610Z,27.25
2023-02-11T21:19:18.156Z,28.60
2023-02-11T21:21:46.548Z,27.35
2023-02-11T21:24:15.175Z,25.88
2023-02-11T21:26:44.201Z,27.08
2023-02-11T21:29:14.771Z,26.40
2023-02-11T21:31:43.536Z,29.15
2023-02-11T21:34:12.194Z,30.02
2023-02-11T21:36:41.154Z,28.00
2023-02-11T21:39:09.749Z,27.17
2023-02-11T21:41:38.117Z,28.20
2023-02-11T21:44:06.428Z,24.85
2023-02-11T21:46:36.210Z,28.38
2023-02-11T21:49:04.479Z,27.70
2023-02-11T21:51:32.822Z,27.13
2023-02-11T21:54:02.663Z,30.33
2023-02-11T21:56:32.142Z,26.65
2023-02-11T21:59:01.260Z,28.60
2023-02-11T22:01:31.202Z,30.27
2023-02-11T22:04:00.869Z,31.10
2023-02-11T22:06:31.770Z,30.67
2023-02-11T22:09:01.498Z,28.63
2023-02-11T22:11:29.965Z,30.63
2023-02-11T22:13:59.116Z,31.20
2023-02-11T22:16:31.490Z,30.05
2023-02-11T22:19:02.396Z,31.13
2023-02-11T22:21:30.933Z,35.60
2023-02-11T22:23:59.303Z,30.10
2023-02-11T22:26:28.489Z,32.20
2023-02-11T22:28:57.027Z,33.63
2023-02-11T22:31:27.511Z,30.73
2023-02-11T22:33:56.101Z,28.88
2023-02-11T22:36:27.197Z,33.45
2023-02-11T22:38:55.886Z,31.42
2023-02-11T22:41:24.272Z,30.20
2023-02-11T22:43:52.609Z,31.10
2023-02-11T22:46:21.009Z,30.83
2023-02-11T22:48:49.683Z,31.65
2023-02-11T22:51:19.409Z,33.38
2023-02-11T22:53:52.449Z,30.13
2023-02-11T22:56:21.021Z,27.67
2023-02-11T22:58:49.911Z,33.60
2023-02-11T23:01:18.653Z,29.13
2023-02-11T23:03:47.183Z,28.33
2023-02-11T23:06:15.700Z,30.38
2023-02-11T23:08:44.306Z,26.42
2023-02-11T23:11:18.114Z,28.42
2023-02-11T23:13:47.805Z,34.30
2023-02-11T23:16:17.824Z,28.07
2023-02-11T23:18:47.400Z,26.75
2023-02-11T23:21:17.753Z,33.17
2023-02-11T23:23:46.514Z,27.75
2023-02-11T23:26:18.932Z,28.17
2023-02-11T23:28:47.585Z,28.15
2023-02-11T23:31:17.610Z,27.73
2023-02-11T23:33:47.048Z,28.92
2023-02-11T23:36:16.632Z,27.08
2023-02-11T23:38:45.057Z,28.77
2023-02-11T23:41:13.381Z,31.88
2023-02-11T23:43:43.135Z,30.02
2023-02-11T23:46:12.039Z,28.30
2023-02-11T23:48:40.937Z,28.67
2023-02-11T23:51:10.113Z,31.48
2023-02-11T23:53:38.649Z,27.80
2023-02-11T23:56:08.704Z,29.40
2023-02-11T23:58:37.307Z,28.67
